createdAt,value
2018-08-20T00:00:19.416Z,22.02
2018-08-20T00:02:50.523Z,22.04
2018-08-20T00:05:21.431Z,22.04
2018-08-20T00:07:52.555Z,22.03
2018-08-20T00:10:24.037Z,22.11
2018-08-20T00:12:54.494Z,22.15
2018-08-20T00:15:25.790Z,22.17
2018-08-20T00:17:56.210Z,22.16
2018-08-20T00:20:27.040Z,22.06
2018-08-20T00:23:04.922Z,22.11
2018-08-20T00:25:36.330Z,21.90
2018-08-20T00:28:07.387Z,21.61
2018-08-20T00:30:38.031Z,21.62
2018-08-20T00:33:08.582Z,21.55
2018-08-20T00:35:38.582Z,21.58
2018-08-20T00:38:08.945Z,21.55
2018-08-20T00:40:40.183Z,21.48
2018-08-20T00:43:10.344Z,21.49
2018-08-20T00:45:41.752Z,21.49
2018-08-20T00:48:12.720Z,21.54
2018-08-20T00:50:44.089Z,21.54
2018-08-20T00:53:15.711Z,21.48
2018-08-20T00:55:47.126Z,21.62
2018-08-20T00:58:17.382Z,21.51
2018-08-20T01:00:48.048Z,21.50
2018-08-20T01:03:19.174Z,21.51
2018-08-20T01:05:49.907Z,21.41
2018-08-20T01:08:20.520Z,21.33
2018-08-20T01:10:51.560Z,21.32
2018-08-20T01:13:23.276Z,21.35
2018-08-20T01:15:55.558Z,21.44
2018-08-20T01:18:25.806Z,21.47
2018-08-20T01:20:57.090Z,21.43
2018-08-20T01:23:28.335Z,21.47
2018-08-20T01:25:59.502Z,21.41
2018-08-20T01:28:31.564Z,21.28
2018-08-20T01:31:02.046Z,21.20
2018-08-20T01:33:33.812Z,21.03
2018-08-20T01:36:04.386Z,21.06
2018-08-20T01:38:34.442Z,20.94
2018-08-20T01:41:06.660Z,20.91
2018-08-20T01:43:39.188Z,20.88
2018-08-20T01:46:09.754Z,20.83
2018-08-20T01:48:41.410Z,20.89
2018-08-20T01:51:11.889Z,20.69
2018-08-20T01:53:43.771Z,20.63
2018-08-20T01:56:14.175Z,20.59
2018-08-20T01:58:45.935Z,20.64
2018-08-20T02:01:16.602Z,20.66
2018-08-20T02:03:48.197Z,20.61
2018-08-20T02:06:19.215Z,20.58
2018-08-20T02:08:49.976Z,20.46
2018-08-20T02:11:22.084Z,20.38
2018-08-20T02:13:55.591Z,20.35
2018-08-20T02:16:26.061Z,20.29
2018-08-20T02:18:57.667Z,20.44
2018-08-20T02:21:28.456Z,20.46
2018-08-20T02:23:59.197Z,20.37
2018-08-20T02:26:30.279Z,20.38
2018-08-20T02:29:01.443Z,20.36
2018-08-20T02:31:31.565Z,20.16
2018-08-20T02:34:02.835Z,20.06
2018-08-20T02:36:35.191Z,20.06
2018-08-20T02:39:10.075Z,20.13
2018-08-20T02:41:43.183Z,20.05
2018-08-20T02:44:14.091Z,19.96
2018-08-20T02:46:54.637Z,19.94
2018-08-20T02:49:25.667Z,19.94
2018-08-20T02:51:56.053Z,19.89
2018-08-20T02:54:27.915Z,19.88
2018-08-20T02:56:58.897Z,19.95
2018-08-20T02:59:29.617Z,19.94
2018-08-20T03:02:00.301Z,19.79
2018-08-20T03:04:32.875Z,19.73
2018-08-20T03:07:03.585Z,19.83
2018-08-20T03:09:36.745Z,19.93
2018-08-20T03:12:07.604Z,19.86
2018-08-20T03:14:38.301Z,19.86
2018-08-20T03:17:10.199Z,19.91
2018-08-20T03:19:40.648Z,19.80
2018-08-20T03:22:11.087Z,19.80
2018-08-20T03:24:42.038Z,19.73
2018-08-20T03:27:13.344Z,19.69
2018-08-20T03:29:44.037Z,19.60
2018-08-20T03:32:19.975Z,19.52
2018-08-20T03:34:51.423Z,19.53
2018-08-20T03:37:21.625Z,19.53
2018-08-20T03:39:52.054Z,19.34
2018-08-20T03:42:23.756Z,19.28
2018-08-20T03:44:54.497Z,19.28
2018-08-20T03:47:25.820Z,19.27
2018-08-20T03:49:56.361Z,19.21
2018-08-20T03:52:44.518Z,19.16
2018-08-20T03:55:16.127Z,19.08
2018-08-20T03:57:53.513Z,19.09
2018-08-20T04:00:25.126Z,19.14
2018-08-20T04:02:56.238Z,19.18
2018-08-20T04:08:17.747Z,19.15
2018-08-20T04:11:00.123Z,19.23
2018-08-20T04:13:32.213Z,19.28
2018-08-20T04:16:03.018Z,19.26
2018-08-20T04:18:33.626Z,19.21
2018-08-20T04:21:05.491Z,19.09
2018-08-20T04:23:35.950Z,19.13
2018-08-20T04:26:06.979Z,19.18
2018-08-20T04:28:39.097Z,19.14
2018-08-20T04:31:13.166Z,19.09
2018-08-20T04:33:43.979Z,18.93
2018-08-20T04:36:14.058Z,19.01
2018-08-20T04:38:45.654Z,19.11
2018-08-20T04:41:17.718Z,19.20
2018-08-20T04:43:48.374Z,19.13
2018-08-20T04:46:20.542Z,19.26
2018-08-20T04:48:50.766Z,19.32
2018-08-20T04:51:21.872Z,19.38
2018-08-20T04:53:52.918Z,19.38
2018-08-20T04:56:24.062Z,19.37
2018-08-20T04:58:56.158Z,19.33
2018-08-20T05:01:26.647Z,19.33
2018-08-20T05:03:57.730Z,19.47
2018-08-20T05:06:28.260Z,19.47
2018-08-20T05:08:58.492Z,19.43
2018-08-20T05:11:29.554Z,19.49
2018-08-20T05:14:00.622Z,19.48
2018-08-20T05:16:32.283Z,19.50
2018-08-20T05:19:03.423Z,19.56
2018-08-20T05:21:33.560Z,19.68
2018-08-20T05:24:04.376Z,19.80
2018-08-20T05:26:35.334Z,19.80
2018-08-20T05:29:06.414Z,20.01
2018-08-20T05:31:37.995Z,20.18
2018-08-20T05:34:08.981Z,20.24
2018-08-20T05:36:39.789Z,20.24
2018-08-20T05:39:12.010Z,20.32
2018-08-20T05:41:49.529Z,20.95
2018-08-20T05:44:23.310Z,21.55
2018-08-20T05:46:54.680Z,22.06
2018-08-20T05:49:25.156Z,22.35
2018-08-20T05:52:03.566Z,22.68
2018-08-20T05:54:33.867Z,22.98
2018-08-20T05:57:06.197Z,23.19
2018-08-20T05:59:37.508Z,23.27
2018-08-20T06:02:09.992Z,23.70
2018-08-20T06:04:41.427Z,23.95
2018-08-20T06:07:12.670Z,24.08
2018-08-20T06:09:43.406Z,23.83
2018-08-20T06:12:14.037Z,23.90
2018-08-20T06:14:44.530Z,23.77
2018-08-20T06:17:14.646Z,23.62
2018-08-20T06:19:45.338Z,23.44
2018-08-20T06:22:16.364Z,23.62
2018-08-20T06:24:47.938Z,23.63
2018-08-20T06:27:18.226Z,24.24
2018-08-20T06:29:49.281Z,24.62
2018-08-20T06:32:20.064Z,25.41
2018-08-20T06:34:50.221Z,26.14
2018-08-20T06:37:21.410Z,26.18
2018-08-20T06:39:53.224Z,27.17
2018-08-20T06:42:23.809Z,27.08
2018-08-20T06:44:55.365Z,27.11
2018-08-20T06:47:27.500Z,27.44
2018-08-20T06:49:59.422Z,27.69
2018-08-20T06:52:29.592Z,27.76
2018-08-20T06:55:00.472Z,27.83
2018-08-20T06:57:31.495Z,27.78
2018-08-20T07:00:01.936Z,27.86
2018-08-20T07:02:33.516Z,27.44
2018-08-20T07:05:05.541Z,27.43
2018-08-20T07:07:38.347Z,27.56
2018-08-20T07:10:15.693Z,27.17
2018-08-20T07:12:45.908Z,27.04
2018-08-20T07:15:17.383Z,26.52
2018-08-20T07:17:48.308Z,26.14
2018-08-20T07:20:18.666Z,25.84
2018-08-20T07:22:49.888Z,25.69
2018-08-20T07:25:20.427Z,25.76
2018-08-20T07:27:51.999Z,25.99
2018-08-20T07:30:22.731Z,26.48
2018-08-20T07:32:53.040Z,26.69
2018-08-20T07:35:24.027Z,26.31
2018-08-20T07:37:55.271Z,26.37
2018-08-20T07:40:26.646Z,26.75
2018-08-20T07:42:56.917Z,27.61
2018-08-20T07:45:28.303Z,28.24
2018-08-20T07:47:59.113Z,28.28
2018-08-20T07:50:29.203Z,28.77
2018-08-20T07:53:00.011Z,28.87
2018-08-20T07:55:30.296Z,29.11
2018-08-20T07:58:01.511Z,29.43
2018-08-20T08:00:31.720Z,29.55
2018-08-20T08:03:02.529Z,29.38
2018-08-20T08:05:32.644Z,29.10
2018-08-20T08:08:04.275Z,29.66
2018-08-20T08:10:34.547Z,29.90
2018-08-20T08:13:05.643Z,29.40
2018-08-20T08:15:37.505Z,29.35
2018-08-20T08:18:12.465Z,29.65
2018-08-20T08:20:43.099Z,30.02
2018-08-20T08:23:14.213Z,30.34
2018-08-20T08:25:45.617Z,30.04
2018-08-20T08:28:16.568Z,30.73
2018-08-20T08:30:48.698Z,30.66
2018-08-20T08:33:20.427Z,30.94
2018-08-20T08:35:51.246Z,30.86
2018-08-20T08:38:21.546Z,29.94
2018-08-20T08:40:53.176Z,30.87
2018-08-20T08:43:23.826Z,31.00
2018-08-20T08:45:55.971Z,30.95
2018-08-20T08:48:27.318Z,31.48
2018-08-20T08:50:57.578Z,32.18
2018-08-20T08:53:29.784Z,32.09
2018-08-20T08:56:01.109Z,32.70
2018-08-20T08:58:31.838Z,32.52
2018-08-20T09:01:02.883Z,32.45
2018-08-20T09:03:34.498Z,32.76
2018-08-20T09:06:06.293Z,31.27
2018-08-20T09:08:36.842Z,31.24
2018-08-20T09:11:07.440Z,31.13
2018-08-20T09:13:38.580Z,31.97
2018-08-20T09:16:08.695Z,32.62
2018-08-20T09:18:39.406Z,33.12
2018-08-20T09:21:10.457Z,33.29
2018-08-20T09:23:43.060Z,32.16
2018-08-20T09:26:14.106Z,32.36
2018-08-20T09:28:44.630Z,32.83
2018-08-20T09:31:18.562Z,32.79
2018-08-20T09:33:49.674Z,33.55
2018-08-20T09:36:19.882Z,33.42
2018-08-20T09:38:50.952Z,33.40
2018-08-20T09:41:21.168Z,33.54
2018-08-20T09:43:52.949Z,32.99
2018-08-20T09:46:24.014Z,32.34
2018-08-20T09:48:55.218Z,32.66
2018-08-20T09:51:26.457Z,33.75
2018-08-20T09:53:58.830Z,33.49
2018-08-20T09:56:32.077Z,33.19
2018-08-20T09:59:03.795Z,32.62
2018-08-20T10:01:35.036Z,33.69
2018-08-20T10:04:06.406Z,34.11
2018-08-20T10:06:36.844Z,33.34
2018-08-20T10:09:07.833Z,34.09
2018-08-20T10:11:39.684Z,33.54
2018-08-20T10:14:11.770Z,33.59
2018-08-20T10:16:42.243Z,33.73
2018-08-20T10:19:14.852Z,34.09
2018-08-20T10:21:45.931Z,34.65
2018-08-20T10:24:16.628Z,34.59
2018-08-20T10:26:46.637Z,34.31
2018-08-20T10:29:18.282Z,34.28
2018-08-20T10:31:49.551Z,35.79
2018-08-20T10:34:19.542Z,37.03
2018-08-20T10:36:49.868Z,35.45
2018-08-20T10:39:20.615Z,34.43
2018-08-20T10:41:52.528Z,35.09
2018-08-20T10:44:22.970Z,35.97
2018-08-20T10:46:53.274Z,37.34
2018-08-20T10:49:24.874Z,38.12
2018-08-20T10:51:55.930Z,38.14
2018-08-20T10:54:27.501Z,36.31
2018-08-20T10:56:58.737Z,36.16
2018-08-20T10:59:28.982Z,36.78
2018-08-20T11:01:59.439Z,36.89
2018-08-20T11:04:30.665Z,36.91
2018-08-20T11:07:00.828Z,38.39
2018-08-20T11:09:32.198Z,38.83
2018-08-20T11:12:03.536Z,37.93
2018-08-20T11:14:34.408Z,37.62
2018-08-20T11:17:05.833Z,37.52
2018-08-20T11:19:38.001Z,38.21
2018-08-20T11:22:09.183Z,38.64
2018-08-20T11:24:39.718Z,39.64
2018-08-20T11:27:10.795Z,38.37
2018-08-20T11:29:41.084Z,37.32
2018-08-20T11:32:11.849Z,36.50
2018-08-20T11:34:43.551Z,36.36
2018-08-20T11:37:13.996Z,35.31
2018-08-20T11:39:45.146Z,37.56
2018-08-20T11:42:16.190Z,36.97
2018-08-20T11:44:47.121Z,36.85
2018-08-20T11:47:19.117Z,37.45
2018-08-20T11:49:50.027Z,38.86
2018-08-20T11:52:20.552Z,38.66
2018-08-20T11:54:51.607Z,39.44
2018-08-20T11:57:23.533Z,40.26
2018-08-20T11:59:54.953Z,37.81
2018-08-20T12:02:26.331Z,36.52
2018-08-20T12:04:56.860Z,38.43
2018-08-20T12:07:28.277Z,39.42
2018-08-20T12:10:00.641Z,40.68
2018-08-20T12:12:30.751Z,41.01
2018-08-20T12:15:00.818Z,39.70
2018-08-20T12:17:31.351Z,40.36
2018-08-20T12:20:02.452Z,40.98
2018-08-20T12:22:32.676Z,39.61
2018-08-20T12:25:03.317Z,40.14
2018-08-20T12:27:35.116Z,40.94
2018-08-20T12:30:09.149Z,41.92
2018-08-20T12:32:39.984Z,41.95
2018-08-20T12:35:10.767Z,41.83
2018-08-20T12:37:42.851Z,41.46
2018-08-20T12:40:14.114Z,40.30
2018-08-20T12:42:44.378Z,38.79
2018-08-20T12:45:14.759Z,38.86
2018-08-20T12:47:46.243Z,39.56
2018-08-20T12:50:17.075Z,38.32
2018-08-20T12:52:48.468Z,38.54
2018-08-20T12:55:18.547Z,39.52
2018-08-20T12:57:49.512Z,40.58
2018-08-20T13:00:21.395Z,40.58
2018-08-20T13:02:52.422Z,39.57
2018-08-20T13:05:23.248Z,39.68
2018-08-20T13:07:53.828Z,39.10
2018-08-20T13:10:24.366Z,40.76
2018-08-20T13:12:54.546Z,40.01
2018-08-20T13:15:25.586Z,38.12
2018-08-20T13:17:56.365Z,37.30
2018-08-20T13:20:26.771Z,37.67
2018-08-20T13:22:57.930Z,37.26
2018-08-20T13:25:28.874Z,37.41
2018-08-20T13:27:59.884Z,38.43
2018-08-20T13:30:31.129Z,39.85
2018-08-20T13:33:01.250Z,40.85
2018-08-20T13:35:34.312Z,40.79
2018-08-20T13:38:07.083Z,38.87
2018-08-20T13:40:40.122Z,38.04
2018-08-20T13:43:11.635Z,37.80
2018-08-20T13:45:42.445Z,37.09
2018-08-20T13:48:13.753Z,38.68
2018-08-20T13:50:46.987Z,38.99
2018-08-20T13:53:18.271Z,39.96
2018-08-20T13:55:48.822Z,39.93
2018-08-20T13:58:19.877Z,40.00
2018-08-20T14:00:50.996Z,40.67
2018-08-20T14:03:21.910Z,42.13
2018-08-20T14:05:51.992Z,41.63
2018-08-20T14:08:22.230Z,40.39
2018-08-20T14:10:53.450Z,40.84
2018-08-20T14:13:24.396Z,40.04
2018-08-20T14:15:54.870Z,41.74
2018-08-20T14:18:25.248Z,42.04
2018-08-20T14:21:17.301Z,43.05
2018-08-20T14:23:49.206Z,43.06
2018-08-20T14:26:20.048Z,44.22
2018-08-20T14:28:50.460Z,42.86
2018-08-20T14:31:20.794Z,43.54
2018-08-20T14:33:52.613Z,41.66
2018-08-20T14:36:23.490Z,39.63
2018-08-20T14:38:53.638Z,40.35
2018-08-20T14:41:23.752Z,40.15
2018-08-20T14:43:55.569Z,39.21
2018-08-20T14:46:25.858Z,38.20
2018-08-20T14:48:56.958Z,37.83
2018-08-20T14:51:27.110Z,37.91
2018-08-20T14:53:57.692Z,39.22
2018-08-20T14:56:28.986Z,37.71
2018-08-20T14:59:00.956Z,36.80
2018-08-20T15:01:33.674Z,36.62
2018-08-20T15:04:04.675Z,37.41
2018-08-20T15:06:42.181Z,36.38
2018-08-20T15:09:13.098Z,36.45
2018-08-20T15:11:44.421Z,35.71
2018-08-20T15:14:14.548Z,37.13
2018-08-20T15:16:44.753Z,38.03
2018-08-20T15:19:15.160Z,38.20
2018-08-20T15:21:49.132Z,38.26
2018-08-20T15:24:20.656Z,36.40
2018-08-20T15:26:52.296Z,36.57
2018-08-20T15:29:23.276Z,38.15
2018-08-20T15:31:53.892Z,38.40
2018-08-20T15:34:26.179Z,39.44
2018-08-20T15:36:56.637Z,39.67
2018-08-20T15:39:27.630Z,38.65
2018-08-20T15:41:59.234Z,39.71
2018-08-20T15:44:29.653Z,39.03
2018-08-20T15:47:01.444Z,39.17
2018-08-20T15:49:33.005Z,38.93
2018-08-20T15:52:03.312Z,38.82
2018-08-20T15:54:33.891Z,38.51
2018-08-20T15:57:04.923Z,37.84
2018-08-20T15:59:36.264Z,38.07
2018-08-20T16:02:06.790Z,37.89
2018-08-20T16:04:38.234Z,37.68
2018-08-20T16:07:09.500Z,36.91
2018-08-20T16:09:41.132Z,36.83
2018-08-20T16:12:12.403Z,37.12
2018-08-20T16:14:43.761Z,35.51
2018-08-20T16:17:14.549Z,35.07
2018-08-20T16:19:45.587Z,35.28
2018-08-20T16:22:16.930Z,35.59
2018-08-20T16:24:47.516Z,35.10
2018-08-20T16:27:19.062Z,33.57
2018-08-20T16:29:49.566Z,34.03
2018-08-20T16:32:19.997Z,34.11
2018-08-20T16:34:50.162Z,33.38
2018-08-20T16:37:20.432Z,33.64
2018-08-20T16:39:50.613Z,33.97
2018-08-20T16:42:22.250Z,33.63
2018-08-20T16:44:53.455Z,33.57
2018-08-20T16:47:24.477Z,33.06
2018-08-20T16:49:59.044Z,32.07
2018-08-20T16:52:30.022Z,32.02
2018-08-20T16:55:00.300Z,31.84
2018-08-20T16:57:30.431Z,32.01
2018-08-20T17:00:01.674Z,32.10
2018-08-20T17:02:33.124Z,32.03
2018-08-20T17:05:05.021Z,31.90
2018-08-20T17:07:37.444Z,31.16
2018-08-20T17:10:11.384Z,30.87
2018-08-20T17:12:44.299Z,30.20
2018-08-20T17:15:17.531Z,30.01
2018-08-20T17:17:48.002Z,29.88
2018-08-20T17:20:18.698Z,29.66
2018-08-20T17:22:51.357Z,29.68
2018-08-20T17:25:22.355Z,29.46
2018-08-20T17:28:02.810Z,29.42
2018-08-20T17:30:33.945Z,29.50
2018-08-20T17:33:05.495Z,29.52
2018-08-20T17:35:43.314Z,29.47
2018-08-20T17:38:14.973Z,29.27
2018-08-20T17:40:47.456Z,28.98
2018-08-20T17:43:19.960Z,29.46
2018-08-20T17:45:51.461Z,29.65
2018-08-20T17:48:29.122Z,29.39
2018-08-20T17:50:59.764Z,28.67
2018-08-20T17:53:42.540Z,28.28
2018-08-20T17:56:14.266Z,28.23
2018-08-20T17:58:45.778Z,28.23
2018-08-20T18:01:21.807Z,28.02
2018-08-20T18:03:52.131Z,27.99
2018-08-20T18:06:55.863Z,27.95
2018-08-20T18:09:31.136Z,27.75
2018-08-20T18:12:03.487Z,27.68
2018-08-20T18:14:35.579Z,27.65
2018-08-20T18:17:06.547Z,27.63
2018-08-20T18:19:38.201Z,27.42
2018-08-20T18:22:08.288Z,27.32
2018-08-20T18:24:38.871Z,27.27
2018-08-20T18:27:09.261Z,27.24
2018-08-20T18:29:40.824Z,27.23
2018-08-20T18:32:11.660Z,27.28
2018-08-20T18:34:42.796Z,27.32
2018-08-20T18:37:14.196Z,27.27
2018-08-20T18:39:48.739Z,27.31
2018-08-20T18:42:20.450Z,27.30
2018-08-20T18:44:51.620Z,27.20
2018-08-20T18:47:22.764Z,27.09
2018-08-20T18:49:59.448Z,27.07
2018-08-20T18:52:31.950Z,27.12
2018-08-20T18:55:02.990Z,27.00
2018-08-20T18:57:38.564Z,26.95
2018-08-20T19:00:15.000Z,26.77
2018-08-20T19:02:52.543Z,26.75
2018-08-20T19:05:25.075Z,26.65
2018-08-20T19:08:00.720Z,26.56
2018-08-20T19:10:32.764Z,26.48
2018-08-20T19:13:04.867Z,26.47
2018-08-20T19:15:43.162Z,26.36
2018-08-20T19:18:18.344Z,26.31
2018-08-20T19:20:49.219Z,26.21
2018-08-20T19:23:19.991Z,26.10
2018-08-20T19:25:52.396Z,26.02
2018-08-20T19:28:23.729Z,25.96
2018-08-20T19:30:56.206Z,25.89
2018-08-20T19:33:31.186Z,25.81
2018-08-20T19:36:03.315Z,25.73
2018-08-20T19:38:34.230Z,25.59
2018-08-20T19:41:08.731Z,25.56
2018-08-20T19:43:46.879Z,25.55
2018-08-20T19:46:31.489Z,25.57
2018-08-20T19:49:07.435Z,25.42
2018-08-20T19:51:39.701Z,25.36
2018-08-20T19:54:13.600Z,25.28
2018-08-20T19:56:43.897Z,25.24
2018-08-20T19:59:18.740Z,25.16
2018-08-20T20:01:50.184Z,25.18
2018-08-20T20:04:20.890Z,25.10
2018-08-20T20:06:52.232Z,25.00
2018-08-20T20:09:23.053Z,24.96
2018-08-20T20:11:53.548Z,24.93
2018-08-20T20:14:24.462Z,24.91
2018-08-20T20:16:55.608Z,24.87
2018-08-20T20:19:26.043Z,24.86
2018-08-20T20:21:57.929Z,24.88
2018-08-20T20:24:28.038Z,24.84
2018-08-20T20:26:59.017Z,24.88
2018-08-20T20:29:29.694Z,24.91
2018-08-20T20:31:59.831Z,24.80
2018-08-20T20:34:31.457Z,24.77
2018-08-20T20:37:03.857Z,24.68
2018-08-20T20:39:34.107Z,24.73
2018-08-20T20:42:05.176Z,24.64
2018-08-20T20:44:35.564Z,24.53
2018-08-20T20:47:06.924Z,24.42
2018-08-20T20:49:37.066Z,24.39
2018-08-20T20:52:11.255Z,24.37
2018-08-20T20:54:42.615Z,24.31
2018-08-20T20:57:13.060Z,24.30
2018-08-20T20:59:45.065Z,24.20
2018-08-20T21:02:16.308Z,24.21
2018-08-20T21:04:47.240Z,24.22
2018-08-20T21:07:24.705Z,24.19
2018-08-20T21:09:55.720Z,24.16
2018-08-20T21:12:27.710Z,24.09
2018-08-20T21:14:57.966Z,24.06
2018-08-20T21:19:58.147Z,23.98
2018-08-20T21:22:28.951Z,23.97
2018-08-20T21:24:59.558Z,23.93
2018-08-20T21:27:30.000Z,23.86
2018-08-20T21:30:01.751Z,23.83
2018-08-20T21:32:32.929Z,23.88
2018-08-20T21:35:03.987Z,23.90
2018-08-20T21:37:35.397Z,23.93
2018-08-20T21:40:05.624Z,24.04
2018-08-20T21:42:42.672Z,24.10
2018-08-20T21:45:13.747Z,24.15
2018-08-20T21:47:44.346Z,24.20
2018-08-20T21:50:14.470Z,24.18
2018-08-20T21:52:48.148Z,24.17
2018-08-20T21:55:18.521Z,24.21
2018-08-20T21:57:56.355Z,24.34
2018-08-20T22:00:29.748Z,24.26
2018-08-20T22:03:02.809Z,24.31
2018-08-20T22:05:33.771Z,24.30
2018-08-20T22:08:04.408Z,24.23
2018-08-20T22:10:35.574Z,24.19
2018-08-20T22:13:06.446Z,24.24
2018-08-20T22:15:38.267Z,24.24
2018-08-20T22:18:08.564Z,24.26
2018-08-20T22:20:39.662Z,24.31
2018-08-20T22:23:24.950Z,24.28
2018-08-20T22:25:42.113Z,24.37
2018-08-20T22:28:12.757Z,24.36
2018-08-20T22:30:48.955Z,24.44
2018-08-20T22:33:20.806Z,24.45
2018-08-20T22:35:51.246Z,24.43
2018-08-20T22:38:21.881Z,24.38
2018-08-20T22:40:51.955Z,24.42
2018-08-20T22:43:22.722Z,24.42
2018-08-20T22:45:53.580Z,24.43
2018-08-20T22:48:23.726Z,24.31
2018-08-20T22:51:15.429Z,24.34
2018-08-20T22:53:53.576Z,24.16
2018-08-20T22:56:29.849Z,24.16
2018-08-20T22:59:08.207Z,24.05
2018-08-20T23:01:39.336Z,23.96
2018-08-20T23:04:10.607Z,23.87
2018-08-20T23:06:43.464Z,23.83
2018-08-20T23:09:27.711Z,23.74
2018-08-20T23:11:58.929Z,23.61
2018-08-20T23:14:30.064Z,23.50
2018-08-20T23:17:00.502Z,23.45
2018-08-20T23:19:31.378Z,23.43
2018-08-20T23:22:03.160Z,23.33
2018-08-20T23:24:34.095Z,23.30
2018-08-20T23:27:04.831Z,23.22
2018-08-20T23:29:34.892Z,23.15
2018-08-20T23:32:06.047Z,23.07
2018-08-20T23:34:37.287Z,23.05
2018-08-20T23:37:07.676Z,22.99
2018-08-20T23:39:38.585Z,22.95
2018-08-20T23:42:08.792Z,22.90
2018-08-20T23:44:40.025Z,22.94
2018-08-20T23:47:10.607Z,22.91
2018-08-20T23:49:42.600Z,22.93
2018-08-20T23:52:13.245Z,22.82
2018-08-20T23:54:44.890Z,22.76
2018-08-20T23:57:16.926Z,22.71
2018-08-20T23:59:49.190Z,22.62
